Lahaina — XPE2826 — position and weather

sailwx.info

Track history (hours):
 
Tides and Currents Weather Stations Pressure Air Temp Water Temp Dewpoint Dewpoint Depression Visibility Wind Speed Wind Dir Waves Ship Positions

Lahaina

Last reported at 2018-Jul-27 16:41 UTC. Time now 2018-Aug-15 03:00 UTC.
Position N 55°44' E 012°35'.
Warning: this ship's position is 18 days out of date.

Length 14 m.

Type: Pleasure craft. MMSI: 219014877.

Date/timePositionNaut miles runAvg speedWind from/ knotsBaromVisibWave heightAir tempDewpointWater temp
2018-Jul-27 16:41N 55°44' E 012°35'1 5.0
2018-Jul-27 16:30N 55°44' E 012°37'3 5.7
2018-Jul-27 16:00N 55°47' E 012°37'3 5.8
2018-Jul-27 15:30N 55°50' E 012°37'3 6.2
2018-Jul-27 15:00N 55°53' E 012°37'3 5.4
2018-Jul-27 14:30N 55°56' E 012°37'3 6.5
2018-Jul-27 14:00N 55°59' E 012°38'3 5.6
2018-Jul-27 13:30N 56°02' E 012°38'51 5.2
2018-Jul-27 03:45N 56°41' E 011°39'2 6.3
2018-Jul-27 03:29N 56°42' E 011°37'0 0.6
2018-Jul-27 02:47N 56°42' E 011°36'0 0.0
2018-Jul-27 02:23N 56°42' E 011°36'0 0.0
2018-Jul-27 01:59N 56°42' E 011°36'0 0.0
2018-Jul-26 23:32N 56°42' E 011°36'0 0.0
2018-Jul-26 23:17N 56°42' E 011°36'0 0.0
2018-Jul-25 08:02N 56°42' E 011°36'0 0.0
2018-Jul-25 07:38N 56°42' E 011°36'0 0.0
2018-Jul-25 07:29N 56°42' E 011°36'0 0.0
2018-Jul-25 06:26N 56°42' E 011°36'0 0.0
2018-Jul-25 05:59N 56°42' E 011°36'0 0.0
2018-Jul-25 05:29N 56°42' E 011°36'0 0.0
2018-Jul-25 04:20N 56°42' E 011°36'0 0.0
2018-Jul-25 03:50N 56°42' E 011°36'0 0.0
2018-Jul-25 03:29N 56°42' E 011°36'0 0.0
2018-Jul-25 02:59N 56°42' E 011°36'0 0.0
2018-Jul-24 22:05N 56°42' E 011°36'0 0.0
2018-Jul-24 21:41N 56°42' E 011°36'37 1.0
2018-Jul-23 07:04N 57°19' E 011°39'0 7.5
2018-Jul-23 07:00N 57°20' E 011°40'3 6.7
2018-Jul-23 06:30N 57°23' E 011°41'3 6.4
2018-Jul-23 06:00N 57°26' E 011°43'3 6.5
2018-Jul-23 05:30N 57°29' E 011°44'3 5.3
2018-Jul-23 05:00N 57°32' E 011°47'2 4.3
2018-Jul-23 04:30N 57°34' E 011°48'0 0.7
2018-Jul-23 03:56N 57°33' E 011°47'0 0.0
2018-Jul-23 03:26N 57°33' E 011°47'0 0.0
2018-Jul-23 02:59N 57°33' E 011°47'0 0.0
2018-Jul-23 02:29N 57°33' E 011°47'0 0.0
2018-Jul-23 01:59N 57°33' E 011°47'0 0.0
2018-Jul-23 01:26N 57°33' E 011°47'0 0.0
2018-Jul-23 00:59N 57°33' E 011°47'0 0.0
2018-Jul-23 00:29N 57°33' E 011°47'0 0.0
2018-Jul-23 00:00N 57°33' E 011°47'0 0.0
2018-Jul-22 23:29N 57°33' E 011°47'0 0.0
2018-Jul-22 23:00N 57°33' E 011°47'0 0.0
2018-Jul-22 22:29N 57°33' E 011°47'0 0.0
2018-Jul-22 21:59N 57°33' E 011°47'0 0.0
2018-Jul-22 21:29N 57°33' E 011°47'0 0.0
2018-Jul-22 20:59N 57°33' E 011°47'0 0.0
2018-Jul-22 20:26N 57°33' E 011°47'0 0.0
2018-Jul-22 19:59N 57°33' E 011°47'0 0.0
2018-Jul-22 19:20N 57°33' E 011°47'0 0.0
2018-Jul-22 18:56N 57°33' E 011°47'0 0.0
2018-Jul-22 18:29N 57°33' E 011°47'0 0.0
2018-Jul-22 17:59N 57°33' E 011°47'0 0.0
2018-Jul-22 17:29N 57°33' E 011°47'0 0.0
2018-Jul-22 16:59N 57°33' E 011°47'0 0.0
2018-Jul-22 16:26N 57°33' E 011°47'0 0.0
2018-Jul-22 15:59N 57°33' E 011°47'0 0.0
2018-Jul-22 14:59N 57°33' E 011°47'0 0.0
2018-Jul-22 14:29N 57°33' E 011°47'0 0.0
2018-Jul-22 13:56N 57°33' E 011°47'0 0.0
2018-Jul-22 13:29N 57°33' E 011°47'0 0.0
2018-Jul-22 12:56N 57°33' E 011°47'0 0.0
2018-Jul-22 12:26N 57°33' E 011°47'0 0.0
2018-Jul-22 11:59N 57°33' E 011°47'0 0.0
2018-Jul-22 11:23N 57°33' E 011°47'0 0.0
2018-Jul-22 10:59N 57°33' E 011°47'0 0.0
2018-Jul-22 10:29N 57°33' E 011°47'0 0.0
2018-Jul-22 09:56N 57°33' E 011°47'0 0.0
2018-Jul-22 09:29N 57°33' E 011°47'0 0.0
2018-Jul-22 08:59N 57°33' E 011°47'0 0.0
2018-Jul-22 08:20N 57°33' E 011°47'0 0.0
2018-Jul-22 07:59N 57°33' E 011°47'0 0.0
2018-Jul-22 07:29N 57°33' E 011°47'0 0.0
2018-Jul-22 06:56N 57°33' E 011°47'0 0.0
2018-Jul-22 06:29N 57°33' E 011°47'0 0.0
2018-Jul-22 05:59N 57°33' E 011°47'0 0.0
2018-Jul-22 05:29N 57°33' E 011°47'0 0.0
2018-Jul-22 04:59N 57°33' E 011°47'0 0.0
2018-Jul-22 04:29N 57°33' E 011°47'0 0.0
2018-Jul-22 03:59N 57°33' E 011°47'0 0.0
2018-Jul-22 03:29N 57°33' E 011°47'0 0.0
2018-Jul-22 02:59N 57°33' E 011°47'0 0.0
2018-Jul-22 02:29N 57°33' E 011°47'0 0.0
2018-Jul-22 01:59N 57°33' E 011°47'0 0.0
2018-Jul-22 01:29N 57°33' E 011°47'0 0.0
2018-Jul-22 00:56N 57°33' E 011°47'0 0.0
2018-Jul-22 00:29N 57°33' E 011°47'0 0.0
2018-Jul-21 23:59N 57°33' E 011°47'0 0.0
2018-Jul-21 23:29N 57°33' E 011°47'0 0.0
2018-Jul-21 22:59N 57°33' E 011°47'0 0.0
2018-Jul-21 22:29N 57°33' E 011°47'0 0.0
2018-Jul-21 21:59N 57°33' E 011°47'0 0.0
2018-Jul-21 21:26N 57°33' E 011°47'0 0.0
2018-Jul-21 20:59N 57°33' E 011°47'0 0.0
2018-Jul-21 20:29N 57°33' E 011°47'0 0.0
2018-Jul-21 19:59N 57°33' E 011°47'0 0.0
2018-Jul-21 19:29N 57°33' E 011°47'0 0.0
2018-Jul-21 18:59N 57°33' E 011°47'0 0.0
2018-Jul-21 18:29N 57°33' E 011°47'0 0.0
2018-Jul-21 17:59N 57°33' E 011°47'0 0.0
2018-Jul-21 17:23N 57°33' E 011°47'0 0.0
2018-Jul-21 16:59N 57°33' E 011°47'0 0.0
2018-Jul-21 16:29N 57°33' E 011°47'0 0.0
2018-Jul-21 15:59N 57°33' E 011°47'0 0.0
2018-Jul-21 15:26N 57°33' E 011°47'0 0.0
2018-Jul-21 14:59N 57°33' E 011°47'0 0.0
2018-Jul-21 14:26N 57°33' E 011°47'0 0.0
2018-Jul-21 13:29N 57°33' E 011°47'0 0.0
2018-Jul-21 12:56N 57°33' E 011°47'0 0.0
2018-Jul-21 12:29N 57°33' E 011°47'0 0.0
2018-Jul-21 11:50N 57°33' E 011°47'0 0.0
2018-Jul-21 11:26N 57°33' E 011°47'0 0.0
2018-Jul-21 10:59N 57°33' E 011°47'0 0.0
2018-Jul-21 10:30N 57°33' E 011°47'0 0.0
2018-Jul-21 09:59N 57°33' E 011°47'0 0.0
2018-Jul-21 09:26N 57°33' E 011°47'0 0.0
2018-Jul-21 08:59N 57°33' E 011°47'0 0.0
2018-Jul-21 08:23N 57°33' E 011°47'0 0.0
2018-Jul-21 07:59N 57°33' E 011°47'0 0.0
2018-Jul-21 07:26N 57°33' E 011°47'0 0.0
2018-Jul-21 06:56N 57°33' E 011°47'0 0.0
2018-Jul-21 06:29N 57°33' E 011°47'0 0.0
2018-Jul-21 05:59N 57°33' E 011°47'0 0.0
2018-Jul-21 05:29N 57°33' E 011°47'0 0.0
2018-Jul-21 04:59N 57°33' E 011°47'0 0.0
2018-Jul-21 04:29N 57°33' E 011°47'0 0.0
2018-Jul-21 03:59N 57°33' E 011°47'0 0.0
2018-Jul-21 03:26N 57°33' E 011°47'0 0.0
2018-Jul-21 02:59N 57°33' E 011°47'0 0.0
2018-Jul-21 02:29N 57°33' E 011°47'0 0.0
2018-Jul-21 01:59N 57°33' E 011°47'0 0.0
2018-Jul-21 01:26N 57°33' E 011°47'0 0.0
2018-Jul-21 00:59N 57°33' E 011°47'0 0.0
2018-Jul-21 00:23N 57°33' E 011°47'0 0.0
2018-Jul-20 23:59N 57°33' E 011°47'0 0.0
2018-Jul-20 23:29N 57°33' E 011°47'0 0.0
2018-Jul-20 22:59N 57°33' E 011°47'0 0.0
2018-Jul-20 22:29N 57°33' E 011°47'0 0.0
2018-Jul-20 21:56N 57°33' E 011°47'0 0.0
2018-Jul-20 21:29N 57°33' E 011°47'0 0.0
2018-Jul-20 20:59N 57°33' E 011°47'0 0.0
2018-Jul-20 20:29N 57°33' E 011°47'0 0.0
2018-Jul-20 19:59N 57°33' E 011°47'0 0.0
2018-Jul-20 19:29N 57°33' E 011°47'0 0.0
2018-Jul-20 18:53N 57°33' E 011°47'0 0.0
2018-Jul-20 18:29N 57°33' E 011°47'0 0.0
2018-Jul-20 17:59N 57°33' E 011°47'0 0.0
2018-Jul-20 17:29N 57°33' E 011°47'0 0.0
2018-Jul-20 16:59N 57°33' E 011°47'0 0.0
2018-Jul-20 16:29N 57°33' E 011°47'0 0.0
2018-Jul-20 15:59N 57°33' E 011°47'0 0.0
2018-Jul-20 15:23N 57°33' E 011°47'0 0.0
2018-Jul-20 14:59N 57°33' E 011°47'0 0.0
2018-Jul-20 14:29N 57°33' E 011°47'1 1.7
2018-Jul-20 14:00N 57°34' E 011°48'3 6.1
2018-Jul-20 13:30N 57°37' E 011°49'3 6.4
2018-Jul-20 13:00N 57°40' E 011°48'3 6.1
2018-Jul-20 12:30N 57°42' E 011°43'3 5.7
2018-Jul-20 12:00N 57°44' E 011°40'3 6.1
2018-Jul-20 11:30N 57°47' E 011°39'3 5.7
2018-Jul-20 11:00N 57°50' E 011°36'3 5.7
2018-Jul-20 10:30N 57°52' E 011°33'3 6.0
2018-Jul-20 09:58N 57°55' E 011°33'2 5.1
2018-Jul-20 09:30N 57°57' E 011°31'7 3.3
2018-Jul-20 07:20N 58°04' E 011°27'0 0.0
2018-Jul-20 06:38N 58°04' E 011°27'0 0.0
2018-Jul-19 22:34N 58°04' E 011°27'0 0.0
2018-Jul-19 22:19N 58°04' E 011°27'0 0.0
2018-Jul-19 13:13N 58°04' E 011°27'0 0.0
2018-Jul-19 12:43N 58°04' E 011°27'0 0.0
2018-Jul-19 12:28N 58°04' E 011°27'0 0.1
2018-Jul-19 11:57N 58°04' E 011°27'2 0.7
2018-Jul-19 09:11N 58°04' E 011°24'1 7.0
2018-Jul-19 09:00N 58°03' E 011°24'4 7.1
2018-Jul-19 08:30N 57°60' E 011°26'3 5.9
2018-Jul-19 07:59N 57°57' E 011°29'3 5.7
2018-Jul-19 07:30N 57°56' E 011°33'3 5.5
2018-Jul-19 07:00N 57°53' E 011°35'  
Track history (hours):
 
Tides and Currents Weather Stations Pressure Air Temp Water Temp Dewpoint Dewpoint Depression Visibility Wind Speed Wind Dir Waves Ship Positions

Lahaina

Last reported at 2018-Jul-27 16:41 UTC. Time now 2018-Aug-15 03:00 UTC.
Position N 55°44' E 012°35'.
Warning: this ship's position is 18 days out of date.

Length 14 m.

Type: Pleasure craft. MMSI: 219014877.

Date/timePositionNaut miles runAvg speedWind from/ knotsBaromVisibWave heightAir tempDewpointWater temp
2018-Jul-27 16:41N 55°44' E 012°35'1 5.0
2018-Jul-27 16:30N 55°44' E 012°37'3 5.7
2018-Jul-27 16:00N 55°47' E 012°37'3 5.8
2018-Jul-27 15:30N 55°50' E 012°37'3 6.2
2018-Jul-27 15:00N 55°53' E 012°37'3 5.4
2018-Jul-27 14:30N 55°56' E 012°37'3 6.5
2018-Jul-27 14:00N 55°59' E 012°38'3 5.6
2018-Jul-27 13:30N 56°02' E 012°38'51 5.2
2018-Jul-27 03:45N 56°41' E 011°39'2 6.3
2018-Jul-27 03:29N 56°42' E 011°37'0 0.6
2018-Jul-27 02:47N 56°42' E 011°36'0 0.0
2018-Jul-27 02:23N 56°42' E 011°36'0 0.0
2018-Jul-27 01:59N 56°42' E 011°36'0 0.0
2018-Jul-26 23:32N 56°42' E 011°36'0 0.0
2018-Jul-26 23:17N 56°42' E 011°36'0 0.0
2018-Jul-25 08:02N 56°42' E 011°36'0 0.0
2018-Jul-25 07:38N 56°42' E 011°36'0 0.0
2018-Jul-25 07:29N 56°42' E 011°36'0 0.0
2018-Jul-25 06:26N 56°42' E 011°36'0 0.0
2018-Jul-25 05:59N 56°42' E 011°36'0 0.0
2018-Jul-25 05:29N 56°42' E 011°36'0 0.0
2018-Jul-25 04:20N 56°42' E 011°36'0 0.0
2018-Jul-25 03:50N 56°42' E 011°36'0 0.0
2018-Jul-25 03:29N 56°42' E 011°36'0 0.0
2018-Jul-25 02:59N 56°42' E 011°36'0 0.0
2018-Jul-24 22:05N 56°42' E 011°36'0 0.0
2018-Jul-24 21:41N 56°42' E 011°36'37 1.0
2018-Jul-23 07:04N 57°19' E 011°39'0 7.5
2018-Jul-23 07:00N 57°20' E 011°40'3 6.7
2018-Jul-23 06:30N 57°23' E 011°41'3 6.4
2018-Jul-23 06:00N 57°26' E 011°43'3 6.5
2018-Jul-23 05:30N 57°29' E 011°44'3 5.3
2018-Jul-23 05:00N 57°32' E 011°47'2 4.3
2018-Jul-23 04:30N 57°34' E 011°48'0 0.7
2018-Jul-23 03:56N 57°33' E 011°47'0 0.0
2018-Jul-23 03:26N 57°33' E 011°47'0 0.0
2018-Jul-23 02:59N 57°33' E 011°47'0 0.0
2018-Jul-23 02:29N 57°33' E 011°47'0 0.0
2018-Jul-23 01:59N 57°33' E 011°47'0 0.0
2018-Jul-23 01:26N 57°33' E 011°47'0 0.0
2018-Jul-23 00:59N 57°33' E 011°47'0 0.0
2018-Jul-23 00:29N 57°33' E 011°47'0 0.0
2018-Jul-23 00:00N 57°33' E 011°47'0 0.0
2018-Jul-22 23:29N 57°33' E 011°47'0 0.0
2018-Jul-22 23:00N 57°33' E 011°47'0 0.0
2018-Jul-22 22:29N 57°33' E 011°47'0 0.0
2018-Jul-22 21:59N 57°33' E 011°47'0 0.0
2018-Jul-22 21:29N 57°33' E 011°47'0 0.0
2018-Jul-22 20:59N 57°33' E 011°47'0 0.0
2018-Jul-22 20:26N 57°33' E 011°47'0 0.0
2018-Jul-22 19:59N 57°33' E 011°47'0 0.0
2018-Jul-22 19:20N 57°33' E 011°47'0 0.0
2018-Jul-22 18:56N 57°33' E 011°47'0 0.0
2018-Jul-22 18:29N 57°33' E 011°47'0 0.0
2018-Jul-22 17:59N 57°33' E 011°47'0 0.0
2018-Jul-22 17:29N 57°33' E 011°47'0 0.0
2018-Jul-22 16:59N 57°33' E 011°47'0 0.0
2018-Jul-22 16:26N 57°33' E 011°47'0 0.0
2018-Jul-22 15:59N 57°33' E 011°47'0 0.0
2018-Jul-22 14:59N 57°33' E 011°47'0 0.0
2018-Jul-22 14:29N 57°33' E 011°47'0 0.0
2018-Jul-22 13:56N 57°33' E 011°47'0 0.0
2018-Jul-22 13:29N 57°33' E 011°47'0 0.0
2018-Jul-22 12:56N 57°33' E 011°47'0 0.0
2018-Jul-22 12:26N 57°33' E 011°47'0 0.0
2018-Jul-22 11:59N 57°33' E 011°47'0 0.0
2018-Jul-22 11:23N 57°33' E 011°47'0 0.0
2018-Jul-22 10:59N 57°33' E 011°47'0 0.0
2018-Jul-22 10:29N 57°33' E 011°47'0 0.0
2018-Jul-22 09:56N 57°33' E 011°47'0 0.0
2018-Jul-22 09:29N 57°33' E 011°47'0 0.0
2018-Jul-22 08:59N 57°33' E 011°47'0 0.0
2018-Jul-22 08:20N 57°33' E 011°47'0 0.0
2018-Jul-22 07:59N 57°33' E 011°47'0 0.0
2018-Jul-22 07:29N 57°33' E 011°47'0 0.0
2018-Jul-22 06:56N 57°33' E 011°47'0 0.0
2018-Jul-22 06:29N 57°33' E 011°47'0 0.0
2018-Jul-22 05:59N 57°33' E 011°47'0 0.0
2018-Jul-22 05:29N 57°33' E 011°47'0 0.0
2018-Jul-22 04:59N 57°33' E 011°47'0 0.0
2018-Jul-22 04:29N 57°33' E 011°47'0 0.0
2018-Jul-22 03:59N 57°33' E 011°47'0 0.0
2018-Jul-22 03:29N 57°33' E 011°47'0 0.0
2018-Jul-22 02:59N 57°33' E 011°47'0 0.0
2018-Jul-22 02:29N 57°33' E 011°47'0 0.0
2018-Jul-22 01:59N 57°33' E 011°47'0 0.0
2018-Jul-22 01:29N 57°33' E 011°47'0 0.0
2018-Jul-22 00:56N 57°33' E 011°47'0 0.0
2018-Jul-22 00:29N 57°33' E 011°47'0 0.0
2018-Jul-21 23:59N 57°33' E 011°47'0 0.0
2018-Jul-21 23:29N 57°33' E 011°47'0 0.0
2018-Jul-21 22:59N 57°33' E 011°47'0 0.0
2018-Jul-21 22:29N 57°33' E 011°47'0 0.0
2018-Jul-21 21:59N 57°33' E 011°47'0 0.0
2018-Jul-21 21:26N 57°33' E 011°47'0 0.0
2018-Jul-21 20:59N 57°33' E 011°47'0 0.0
2018-Jul-21 20:29N 57°33' E 011°47'0 0.0
2018-Jul-21 19:59N 57°33' E 011°47'0 0.0
2018-Jul-21 19:29N 57°33' E 011°47'0 0.0
2018-Jul-21 18:59N 57°33' E 011°47'0 0.0
2018-Jul-21 18:29N 57°33' E 011°47'0 0.0
2018-Jul-21 17:59N 57°33' E 011°47'0 0.0
2018-Jul-21 17:23N 57°33' E 011°47'0 0.0
2018-Jul-21 16:59N 57°33' E 011°47'0 0.0
2018-Jul-21 16:29N 57°33' E 011°47'0 0.0
2018-Jul-21 15:59N 57°33' E 011°47'0 0.0
2018-Jul-21 15:26N 57°33' E 011°47'0 0.0
2018-Jul-21 14:59N 57°33' E 011°47'0 0.0
2018-Jul-21 14:26N 57°33' E 011°47'0 0.0
2018-Jul-21 13:29N 57°33' E 011°47'0 0.0
2018-Jul-21 12:56N 57°33' E 011°47'0 0.0
2018-Jul-21 12:29N 57°33' E 011°47'0 0.0
2018-Jul-21 11:50N 57°33' E 011°47'0 0.0
2018-Jul-21 11:26N 57°33' E 011°47'0 0.0
2018-Jul-21 10:59N 57°33' E 011°47'0 0.0
2018-Jul-21 10:30N 57°33' E 011°47'0 0.0
2018-Jul-21 09:59N 57°33' E 011°47'0 0.0
2018-Jul-21 09:26N 57°33' E 011°47'0 0.0
2018-Jul-21 08:59N 57°33' E 011°47'0 0.0
2018-Jul-21 08:23N 57°33' E 011°47'0 0.0
2018-Jul-21 07:59N 57°33' E 011°47'0 0.0
2018-Jul-21 07:26N 57°33' E 011°47'0 0.0
2018-Jul-21 06:56N 57°33' E 011°47'0 0.0
2018-Jul-21 06:29N 57°33' E 011°47'0 0.0
2018-Jul-21 05:59N 57°33' E 011°47'0 0.0
2018-Jul-21 05:29N 57°33' E 011°47'0 0.0
2018-Jul-21 04:59N 57°33' E 011°47'0 0.0
2018-Jul-21 04:29N 57°33' E 011°47'0 0.0
2018-Jul-21 03:59N 57°33' E 011°47'0 0.0
2018-Jul-21 03:26N 57°33' E 011°47'0 0.0
2018-Jul-21 02:59N 57°33' E 011°47'0 0.0
2018-Jul-21 02:29N 57°33' E 011°47'0 0.0
2018-Jul-21 01:59N 57°33' E 011°47'0 0.0
2018-Jul-21 01:26N 57°33' E 011°47'0 0.0
2018-Jul-21 00:59N 57°33' E 011°47'0 0.0
2018-Jul-21 00:23N 57°33' E 011°47'0 0.0
2018-Jul-20 23:59N 57°33' E 011°47'0 0.0
2018-Jul-20 23:29N 57°33' E 011°47'0 0.0
2018-Jul-20 22:59N 57°33' E 011°47'0 0.0
2018-Jul-20 22:29N 57°33' E 011°47'0 0.0
2018-Jul-20 21:56N 57°33' E 011°47'0 0.0
2018-Jul-20 21:29N 57°33' E 011°47'0 0.0
2018-Jul-20 20:59N 57°33' E 011°47'0 0.0
2018-Jul-20 20:29N 57°33' E 011°47'0 0.0
2018-Jul-20 19:59N 57°33' E 011°47'0 0.0
2018-Jul-20 19:29N 57°33' E 011°47'0 0.0
2018-Jul-20 18:53N 57°33' E 011°47'0 0.0
2018-Jul-20 18:29N 57°33' E 011°47'0 0.0
2018-Jul-20 17:59N 57°33' E 011°47'0 0.0
2018-Jul-20 17:29N 57°33' E 011°47'0 0.0
2018-Jul-20 16:59N 57°33' E 011°47'0 0.0
2018-Jul-20 16:29N 57°33' E 011°47'0 0.0
2018-Jul-20 15:59N 57°33' E 011°47'0 0.0
2018-Jul-20 15:23N 57°33' E 011°47'0 0.0
2018-Jul-20 14:59N 57°33' E 011°47'0 0.0
2018-Jul-20 14:29N 57°33' E 011°47'1 1.7
2018-Jul-20 14:00N 57°34' E 011°48'3 6.1
2018-Jul-20 13:30N 57°37' E 011°49'3 6.4
2018-Jul-20 13:00N 57°40' E 011°48'3 6.1
2018-Jul-20 12:30N 57°42' E 011°43'3 5.7
2018-Jul-20 12:00N 57°44' E 011°40'3 6.1
2018-Jul-20 11:30N 57°47' E 011°39'3 5.7
2018-Jul-20 11:00N 57°50' E 011°36'3 5.7
2018-Jul-20 10:30N 57°52' E 011°33'3 6.0
2018-Jul-20 09:58N 57°55' E 011°33'2 5.1
2018-Jul-20 09:30N 57°57' E 011°31'7 3.3
2018-Jul-20 07:20N 58°04' E 011°27'0 0.0
2018-Jul-20 06:38N 58°04' E 011°27'0 0.0
2018-Jul-19 22:34N 58°04' E 011°27'0 0.0
2018-Jul-19 22:19N 58°04' E 011°27'0 0.0
2018-Jul-19 13:13N 58°04' E 011°27'0 0.0
2018-Jul-19 12:43N 58°04' E 011°27'0 0.0
2018-Jul-19 12:28N 58°04' E 011°27'0 0.1
2018-Jul-19 11:57N 58°04' E 011°27'2 0.7
2018-Jul-19 09:11N 58°04' E 011°24'1 7.0
2018-Jul-19 09:00N 58°03' E 011°24'4 7.1
2018-Jul-19 08:30N 57°60' E 011°26'3 5.9
2018-Jul-19 07:59N 57°57' E 011°29'3 5.7
2018-Jul-19 07:30N 57°56' E 011°33'3 5.5
2018-Jul-19 07:00N 57°53' E 011°35'  

Dump ship's entire track history